CEN4 weather

High River Airport
High River, Alberta, Canada

Public forecast

Using degrees Celsius for public forecast. Weather courtesy of forecast.io.

METAR (pilot weather report)

Closest report is Calgary International Airport, 35.6 nm (65.9 km) NNW. Retrieved 2019/06/17 07:00 UTC (59 minutes ago):

CYYC 170700Z 17007KT 15SM FEW120 12/08 A3006 RMK AC1 AC TR CONTRAILS SLP184 DENSITY ALT 4000FT

TAF (pilot weather forecast)

Closest forecast is Calgary International Airport, 35.6 nm (65.9 km) NNW. Retrieved 2019/06/17 06:39 UTC (1 hour ago):

TAF CYYC 170538Z 1706/1806 12008KT P6SM FEW090 SCT250 FM171600 16010KT P6SM SCT250 FM172200 18012KT P6SM SCT080 SCT150 BKN250 PROB40 1722/1802 VRB20G30KT 4SM TSRA BKN080CB FM180200 18010KT P6SM SCT100 SCT250 RMK NXT FCST BY 170900Z